Accueil
METAR-TAF:

METAR-TAF

Aéroports :

Aéroport international de Bergame-Orio al Serio (Le Caravage)

Bergame, Italie

latitude: 45-40N, longitude: 009-42E, altitude: 238 m

Observation

Le bulletin a été fait il y a 28 minutes, à 22:50 UTC
Vent 5 kt de nord
Température 4°C
Humidité 75%
Pression 1028 hPa
Visibilité 10 km ou plus
pas de nuages en-dessous de 1500 mètres et pas de cumulonimbus.

METAR: LIME 212250Z 01005KT CAVOK 04/00 Q1028 NOSIG

Heure: 00:18 (23:18 UTC)

Prévision

Le bulletin a été fait il y a 6 heures et 18 minutes, à 17:00 UTC
Prévision valable du 21 à 18 UTC au 22 à 18 UTC
Vent 5 kt de direction variable
Visibilité 10 km ou plus
pas de nuages en-dessous de 1500 mètres et pas de cumulonimbus.

TAF: LIME 211700Z 2118/2218 VRB05KT CAVOK

Observations et prévisions météorologiques de plus de 4000 aéroports (messages METAR et TAF).

Les stations disponibles sont représentées par des disques jaunes et rouges sur la carte.

Passer la souris dessus pour voir le nom de la station.

Cliquer dessus pour voir les observations et prévisions météorologiques.

Pour changer de carte: cliquez sur les boutons verts avec une croix noire pour zoomer, sur le bouton vert avec un tiret pour effectuer un zoom arrière, ou sur les flèches vertes pour les cartes adjacentes.


METAR-TAF: